Time;durP1;ratioP1;P1;durP2;ratioP2;P2;SDS_P1;SDS_P2;PMS_P1;PMS_P2;Temp;Humidity;BMP_temperature;BMP_pressure;BME280_temperature;BME280_humidity;BME280_pressure;Samples;Min_cycle;Max_cycle;Signal;HPM_P1;HPM_P2
2022/08/07 00:01:00;;;;;;;16.00;11.65;;;;;;;15.45;100.00;98752.09;1830016;78;20872;-84
2022/08/07 00:03:27;;;;;;;15.93;11.40;;;;;;;15.44;100.00;98756.49;1831255;77;21074;-85
2022/08/07 00:05:53;;;;;;;17.67;12.47;;;;;;;15.43;100.00;98751.58;1835129;78;21231;-86
2022/08/07 00:08:21;;;;;;;17.45;13.40;;;;;;;15.42;100.00;98759.52;1835431;78;21086;-86
2022/08/07 00:10:49;;;;;;;20.15;15.18;;;;;;;15.42;100.00;98745.05;1834585;78;21023;-83
2022/08/07 00:13:16;;;;;;;16.95;13.08;;;;;;;15.41;100.00;98749.70;1834989;78;21081;-86
2022/08/07 00:15:41;;;;;;;18.17;13.55;;;;;;;15.40;100.00;98749.45;1751797;81;21052;-85
2022/08/07 00:18:08;;;;;;;19.23;13.95;;;;;;;15.38;100.00;98750.83;1763307;81;21163;-85
2022/08/07 00:20:36;;;;;;;20.00;14.50;;;;;;;15.38;100.00;98753.03;1759421;81;21007;-84
2022/08/07 00:23:02;;;;;;;17.87;15.08;;;;;;;15.38;100.00;98753.56;1766291;81;21379;-85
2022/08/07 00:25:28;;;;;;;22.13;13.85;;;;;;;15.39;100.00;98755.21;1791110;80;21007;-85
2022/08/07 00:27:54;;;;;;;17.73;13.15;;;;;;;15.40;100.00;98759.01;1829948;77;20939;-83
2022/08/07 00:30:20;;;;;;;19.70;14.10;;;;;;;15.43;100.00;98758.97;1829665;78;21566;-85
2022/08/07 00:32:48;;;;;;;17.32;14.18;;;;;;;15.42;100.00;98756.80;1830363;78;21073;-83
2022/08/07 00:35:16;;;;;;;18.10;14.15;;;;;;;15.39;100.00;98757.39;1770398;81;21080;-84
2022/08/07 00:37:42;;;;;;;18.03;13.60;;;;;;;15.37;100.00;98756.84;1771525;81;21018;-82
2022/08/07 00:40:08;;;;;;;18.62;13.80;;;;;;;15.38;100.00;98765.32;1764057;80;20946;-83
2022/08/07 00:42:35;;;;;;;20.25;15.03;;;;;;;15.38;100.00;98768.05;1823529;78;21753;-85
2022/08/07 00:45:00;;;;;;;19.35;13.88;;;;;;;15.38;100.00;98762.59;1811526;78;21030;-83
2022/08/07 00:47:27;;;;;;;26.87;14.93;;;;;;;15.37;100.00;98766.41;1829618;78;20895;-83
2022/08/07 00:49:53;;;;;;;19.92;14.53;;;;;;;15.36;100.00;98769.43;1829733;77;21522;-84
2022/08/07 00:52:19;;;;;;;18.27;14.85;;;;;;;15.35;100.00;98757.70;1830115;78;20868;-85
2022/08/07 00:54:44;;;;;;;18.70;15.55;;;;;;;15.36;100.00;98763.41;1829101;78;21302;-85
2022/08/07 00:57:12;;;;;;;23.47;16.57;;;;;;;15.36;100.00;98763.41;1831479;77;20872;-85
2022/08/07 00:59:38;;;;;;;18.32;15.83;;;;;;;15.38;100.00;98763.12;1822475;78;21581;-85
2022/08/07 01:02:05;;;;;;;16.90;13.98;;;;;;;15.39;100.00;98757.94;1829646;78;20934;-85
2022/08/07 01:04:31;;;;;;;17.00;13.65;;;;;;;15.40;100.00;98759.01;1833513;78;21042;-83
2022/08/07 01:06:57;;;;;;;18.25;13.98;;;;;;;15.39;100.00;98756.02;1803845;78;22015;-85
2022/08/07 01:09:24;;;;;;;19.67;14.28;;;;;;;15.39;100.00;98752.48;1828212;78;20895;-82
2022/08/07 01:11:50;;;;;;;18.75;13.95;;;;;;;15.39;100.00;98756.02;1830045;78;20979;-83
2022/08/07 01:14:19;;;;;;;17.30;14.23;;;;;;;15.40;100.00;98755.47;1834653;78;21104;-83
2022/08/07 01:16:45;;;;;;;22.52;14.55;;;;;;;15.39;100.00;98756.02;1710521;82;21079;-85
2022/08/07 01:19:11;;;;;;;21.02;14.95;;;;;;;15.38;100.00;98754.40;1757345;81;21038;-85
2022/08/07 01:21:37;;;;;;;17.30;14.50;;;;;;;15.41;100.00;98753.80;1762832;81;21062;-83
2022/08/07 01:24:03;;;;;;;16.50;13.08;;;;;;;15.41;100.00;98751.63;1718665;81;20935;-84
2022/08/07 01:26:29;;;;;;;19.42;14.28;;;;;;;15.41;100.00;98752.44;1763314;81;22084;-82
2022/08/07 01:28:55;;;;;;;19.05;13.10;;;;;;;15.41;100.00;98757.90;1826520;78;20841;-85
2022/08/07 01:31:30;;;;;;;14.80;12.90;;;;;;;15.40;100.00;98754.91;1834475;77;21002;-85
2022/08/07 01:33:53;;;;;;;16.07;12.68;;;;;;;15.40;100.00;98751.37;1834430;77;21098;-85
2022/08/07 01:36:19;;;;;;;16.48;14.38;;;;;;;15.39;100.00;98751.92;1836319;78;21552;-85
2022/08/07 01:38:45;;;;;;;24.37;14.83;;;;;;;15.39;100.00;98758.75;1835013;77;20860;-82
2022/08/07 01:41:10;;;;;;;22.73;15.30;;;;;;;15.40;100.00;98759.01;1830102;78;20888;-85
2022/08/07 01:43:37;;;;;;;22.98;14.70;;;;;;;15.42;100.00;98754.06;1830087;78;21159;-83
2022/08/07 01:46:03;;;;;;;23.73;14.87;;;;;;;15.46;100.00;98752.35;1823617;78;21400;-82
2022/08/07 01:48:31;;;;;;;17.73;14.53;;;;;;;15.47;100.00;98759.47;1824324;78;21136;-85
2022/08/07 01:51:02;;;;;;;19.77;16.07;;;;;;;15.45;100.00;98753.46;1760731;81;21038;-85
2022/08/07 01:53:28;;;;;;;20.65;14.73;;;;;;;15.45;100.00;98751.28;1768181;81;21037;-83
2022/08/07 01:55:57;;;;;;;19.17;15.00;;;;;;;15.42;100.00;98752.70;1770053;80;21215;-85
2022/08/07 01:58:23;;;;;;;;;;;;;;;15.42;100.00;98741.77;1832876;78;20983;-85
2022/08/07 02:00:54;;;;;;;17.80;13.60;;;;;;;15.41;100.00;98743.44;1830082;78;20738;-83
2022/08/07 02:03:20;;;;;;;18.20;13.68;;;;;;;15.39;100.00;98744.29;1829217;78;21459;-85
2022/08/07 02:05:50;;;;;;;17.20;13.28;;;;;;;15.39;100.00;98740.19;1802580;78;20991;-86
2022/08/07 02:08:18;;;;;;;18.65;13.98;;;;;;;15.37;100.00;98742.38;1834661;78;21053;-83
2022/08/07 02:10:48;;;;;;;16.60;12.78;;;;;;;15.33;100.00;98738.63;1835501;78;20935;-83
2022/08/07 02:13:14;;;;;;;25.88;14.68;;;;;;;15.33;100.00;98740.80;1776575;78;21062;-82
2022/08/07 02:15:40;;;;;;;16.73;13.28;;;;;;;15.32;100.00;98740.55;1833091;78;21474;-85
2022/08/07 02:18:06;;;;;;;18.15;13.88;;;;;;;15.34;100.00;98738.88;1830072;78;20876;-85
2022/08/07 02:20:32;;;;;;;16.67;13.18;;;;;;;15.33;100.00;98739.99;1820627;77;21134;-83
2022/08/07 02:23:02;;;;;;;16.48;13.75;;;;;;;15.31;100.00;98736.75;1830167;78;20872;-85
2022/08/07 02:25:30;;;;;;;16.27;13.60;;;;;;;15.30;100.00;98744.13;1764095;80;21164;-86
2022/08/07 02:27:57;;;;;;;17.57;13.95;;;;;;;15.28;100.00;98740.86;1823142;78;21423;-83
2022/08/07 02:30:23;;;;;;;16.77;13.55;;;;;;;15.26;100.00;98743.63;1793520;78;21325;-85
2022/08/07 02:32:49;;;;;;;22.27;13.40;;;;;;;15.25;100.00;98742.81;1791107;80;21115;-86
2022/08/07 02:35:17;;;;;;;16.10;13.75;;;;;;;15.28;100.00;98740.05;1787318;78;20959;-85
2022/08/07 02:37:43;;;;;;;17.15;12.13;;;;;;;15.31;100.00;98735.38;1795984;79;21082;-84
2022/08/07 02:40:09;;;;;;;14.95;12.43;;;;;;;15.24;100.00;98739.83;1806188;78;20891;-85
2022/08/07 02:42:35;;;;;;;17.67;14.30;;;;;;;15.22;100.00;98740.12;1738130;82;21008;-85
2022/08/07 02:45:03;;;;;;;16.93;14.00;;;;;;;15.20;100.00;98742.87;1759951;80;21860;-83
2022/08/07 02:47:29;;;;;;;16.77;12.78;;;;;;;15.18;100.00;98745.89;1735493;80;20974;-85
2022/08/07 02:49:55;;;;;;;16.82;11.63;;;;;;;15.18;100.00;98741.80;1752078;81;21208;-85
2022/08/07 02:52:42;;;;;;;14.95;11.75;;;;;;;15.19;100.00;98746.16;1759850;81;20950;-85
2022/08/07 02:55:18;;;;;;;16.67;10.78;;;;;;;15.16;100.00;98742.66;1759264;80;21062;-85
2022/08/07 02:57:44;;;;;;;19.95;12.90;;;;;;;15.15;100.00;98742.39;1759390;81;21289;-85
2022/08/07 03:00:11;;;;;;;17.32;12.68;;;;;;;15.15;100.00;98745.13;1758150;80;21152;-83
2022/08/07 03:02:44;;;;;;;13.45;12.05;;;;;;;15.15;100.00;98749.77;1802461;78;21139;-85
2022/08/07 03:05:10;;;;;;;15.98;11.70;;;;;;;15.14;100.00;98755.79;1806336;78;20976;-85
2022/08/07 03:07:37;;;;;;;17.37;13.00;;;;;;;15.13;100.00;98749.27;1803557;78;21515;-82
2022/08/07 03:10:03;;;;;;;12.93;11.35;;;;;;;15.12;100.00;98747.05;1796350;79;21131;-82
2022/08/07 03:12:29;;;;;;;16.70;13.08;;;;;;;15.10;100.00;98750.64;1797535;79;21085;-85
2022/08/07 03:14:55;;;;;;;14.23;10.85;;;;;;;15.08;100.00;98754.77;1823243;78;20880;-85
2022/08/07 03:17:22;;;;;;;14.53;11.15;;;;;;;15.07;100.00;98746.32;1829898;77;21054;-86
2022/08/07 03:19:49;;;;;;;13.90;10.98;;;;;;;15.04;100.00;98750.45;1832193;78;21054;-85
2022/08/07 03:22:15;;;;;;;17.45;11.10;;;;;;;15.05;100.00;98747.17;1836506;78;20981;-85
2022/08/07 03:24:41;;;;;;;13.03;11.55;;;;;;;15.02;100.00;98747.18;1834080;78;20975;-85
2022/08/07 03:27:07;;;;;;;14.55;11.65;;;;;;;15.01;100.00;98750.20;1834144;77;21014;-85
2022/08/07 03:29:39;;;;;;;11.50;9.70;;;;;;;15.01;100.00;98751.57;1762870;81;20894;-83
2022/08/07 03:32:08;;;;;;;10.65;9.40;;;;;;;15.02;100.00;98751.83;1833947;78;21144;-83
2022/08/07 03:34:34;;;;;;;13.15;9.68;;;;;;;15.00;100.00;98749.95;1827863;78;21116;-86
2022/08/07 03:37:01;;;;;;;9.68;8.65;;;;;;;14.97;100.00;98746.45;1823070;78;20946;-83
2022/08/07 03:39:28;;;;;;;11.10;8.48;;;;;;;14.94;100.00;98745.91;1826204;78;21101;-83
2022/08/07 03:41:54;;;;;;;9.63;6.85;;;;;;;14.94;100.00;98749.19;1823808;78;21077;-82
2022/08/07 03:44:20;;;;;;;8.90;7.12;;;;;;;14.89;100.00;98750.07;1822347;78;20892;-83
2022/08/07 03:46:46;;;;;;;8.98;7.25;;;;;;;14.88;100.00;98757.19;1823110;78;21309;-82
2022/08/07 03:49:12;;;;;;;10.05;7.17;;;;;;;14.85;100.00;98748.20;1824105;78;20978;-85
2022/08/07 03:51:38;;;;;;;8.10;7.08;;;;;;;14.82;100.00;98755.05;1824362;78;20841;-83
2022/08/07 03:54:04;;;;;;;13.35;7.35;;;;;;;14.80;100.00;98757.82;1801298;78;21018;-85
2022/08/07 03:56:30;;;;;;;9.58;6.75;;;;;;;14.80;100.00;98757.27;1822755;78;20973;-85
2022/08/07 03:58:56;;;;;;;9.38;6.78;;;;;;;14.79;100.00;98762.47;1822643;78;22170;-83
2022/08/07 04:01:22;;;;;;;7.10;6.40;;;;;;;14.78;100.00;98766.27;1823055;78;20876;-86
2022/08/07 04:03:48;;;;;;;7.87;6.28;;;;;;;14.81;100.00;98772.53;1753310;81;21106;-83
2022/08/07 04:06:14;;;;;;;12.33;6.95;;;;;;;14.81;100.00;98773.89;1695106;82;21064;-82
2022/08/07 04:08:40;;;;;;;8.33;7.40;;;;;;;14.78;100.00;98770.91;1737631;80;20917;-85
2022/08/07 04:11:07;;;;;;;12.13;7.55;;;;;;;14.78;100.00;98774.45;1772685;80;20999;-85
2022/08/07 04:13:33;;;;;;;11.78;7.40;;;;;;;14.83;100.00;98774.41;1772449;80;21005;-85
2022/08/07 04:15:59;;;;;;;11.12;7.65;;;;;;;14.87;100.00;98773.30;1728638;82;21146;-83
2022/08/07 04:18:25;;;;;;;11.28;7.95;;;;;;;14.91;100.00;98779.23;1752335;80;20870;-84
2022/08/07 04:20:51;;;;;;;9.30;7.97;;;;;;;14.94;100.00;98783.30;1774015;80;21020;-84
2022/08/07 04:23:17;;;;;;;7.45;6.65;;;;;;;14.94;100.00;98780.02;1774242;80;20949;-84
2022/08/07 04:25:43;;;;;;;10.25;7.50;;;;;;;14.96;100.00;98777.02;1773102;80;21492;-85
2022/08/07 04:28:09;;;;;;;10.75;7.70;;;;;;;15.01;100.00;98776.13;1752193;81;21117;-83
2022/08/07 04:30:35;;;;;;;10.88;7.10;;;;;;;15.07;100.00;98781.25;1822738;78;21026;-84
2022/08/07 04:33:07;;;;;;;10.70;6.87;;;;;;;15.11;100.00;98777.38;1823345;78;20950;-85
2022/08/07 04:35:36;;;;;;;10.15;7.75;;;;;;;15.18;100.00;98781.38;1820615;78;21115;-85
2022/08/07 04:38:07;;;;;;;10.80;6.55;;;;;;;15.24;100.00;98788.97;1823257;78;20949;-85
2022/08/07 04:40:38;;;;;;;8.98;7.45;;;;;;;15.28;100.00;98783.73;1825448;78;21161;-83
2022/08/07 04:43:04;;;;;;;9.70;7.35;;;;;;;15.29;100.00;98782.06;1825142;78;21452;-85
2022/08/07 04:45:44;;;;;;;12.33;7.40;;;;;;;15.33;100.00;98787.77;1822113;78;21537;-84
2022/08/07 04:48:18;;;;;;;9.25;6.67;;;;;;;15.39;100.00;98792.89;1819420;78;21023;-85
2022/08/07 04:51:07;;;;;;;9.90;6.90;;;;;;;15.50;100.00;98788.91;1825433;78;21424;-85
2022/08/07 04:54:07;;;;;;;12.25;7.03;;;;;;;15.59;100.00;98786.89;1824530;78;21068;-84
2022/08/07 04:56:53;;;;;;;8.23;6.12;;;;;;;15.66;100.00;98793.66;1752768;81;20971;-85
2022/08/07 04:59:28;;;;;;;7.60;6.67;;;;;;;15.75;100.00;98793.81;1753267;81;21449;-83
2022/08/07 05:02:19;;;;;;;6.78;6.08;;;;;;;15.79;100.00;98794.27;1772296;80;21117;-85
2022/08/07 05:05:01;;;;;;;9.73;6.65;;;;;;;15.85;100.00;98790.92;1753680;81;21032;-83
2022/08/07 05:07:39;;;;;;;8.75;5.33;;;;;;;15.95;100.00;98796.23;1773505;80;21100;-85
2022/08/07 05:10:11;;;;;;;8.28;6.12;;;;;;;16.01;100.00;98786.05;1777039;80;21560;-82
2022/08/07 05:12:49;;;;;;;7.17;6.00;;;;;;;16.18;100.00;98790.98;1774279;80;21084;-85
2022/08/07 05:15:19;;;;;;;17.12;5.75;;;;;;;16.28;100.00;98786.72;1772402;80;26289;-85
2022/08/07 05:17:47;;;;;;;10.63;5.33;;;;;;;16.38;100.00;98790.65;1739922;81;21188;-83
2022/08/07 05:20:22;;;;;;;5.90;4.78;;;;;;;16.41;100.00;98794.70;1772328;80;21010;-83
2022/08/07 05:22:47;;;;;;;6.75;4.90;;;;;;;16.53;100.00;98795.88;1772403;80;21049;-85
2022/08/07 05:25:15;;;;;;;6.92;4.45;;;;;;;16.56;100.00;98796.63;1753085;81;21085;-83
2022/08/07 05:27:41;;;;;;;5.30;4.53;;;;;;;16.72;100.00;98796.40;1822799;78;21029;-85
2022/08/07 05:30:08;;;;;;;8.68;5.53;;;;;;;16.86;100.00;98798.61;1827660;78;21574;-86
2022/08/07 05:32:35;;;;;;;9.80;4.90;;;;;;;16.95;100.00;98798.17;1824607;78;21077;-85
2022/08/07 05:35:01;;;;;;;7.80;5.25;;;;;;;16.93;100.00;98787.27;1825325;78;21035;-84
2022/08/07 05:37:29;;;;;;;6.85;5.00;;;;;;;16.91;100.00;98793.02;1800535;78;49028;-86
2022/08/07 05:39:55;;;;;;;7.45;5.33;;;;;;;16.80;100.00;98804.72;1826102;78;21318;-83
2022/08/07 05:42:21;;;;;;;5.85;4.92;;;;;;;16.81;100.00;98800.88;1824874;78;20915;-84
2022/08/07 05:44:47;;;;;;;8.33;5.03;;;;;;;16.86;100.00;98804.09;1820253;78;20953;-86
2022/08/07 05:47:12;;;;;;;6.35;5.03;;;;;;;16.89;100.00;98799.36;1754611;80;20846;-86
2022/08/07 05:49:38;;;;;;;5.55;4.75;;;;;;;16.85;100.00;98803.27;1771677;80;21724;-83
2022/08/07 05:52:05;;;;;;;5.65;4.90;;;;;;;16.89;100.00;98804.84;1785909;79;21615;-84
2022/08/07 05:54:31;;;;;;;7.87;5.08;;;;;;;16.88;100.00;98804.59;1825072;78;21408;-84
2022/08/07 05:56:57;;;;;;;7.62;5.33;;;;;;;16.82;100.00;98806.59;1824176;78;20907;-83
2022/08/07 05:59:23;;;;;;;7.22;5.05;;;;;;;16.86;100.00;98802.72;1825354;78;21015;-86
2022/08/07 06:01:49;;;;;;;6.35;5.65;;;;;;;16.91;100.00;98808.08;1825070;78;20861;-83
2022/08/07 06:04:16;;;;;;;6.30;4.12;;;;;;;16.94;100.00;98800.66;1826410;78;20962;-86
2022/08/07 06:06:42;;;;;;;11.43;5.42;;;;;;;16.94;100.00;98799.28;1830442;78;21487;-86
2022/08/07 06:09:08;;;;;;;7.58;4.72;;;;;;;16.95;100.00;98798.17;1798169;78;21552;-84
2022/08/07 06:11:34;;;;;;;6.08;5.47;;;;;;;16.94;100.00;98799.28;1799513;78;21046;-86
2022/08/07 06:14:00;;;;;;;7.33;4.92;;;;;;;16.91;100.00;98806.16;1823210;78;21608;-84
2022/08/07 06:16:29;;;;;;;7.12;4.75;;;;;;;16.91;100.00;98803.97;1823015;78;20971;-86
2022/08/07 06:18:55;;;;;;;10.65;5.78;;;;;;;16.90;100.00;98811.37;1801029;78;21082;-83
2022/08/07 06:21:21;;;;;;;7.75;4.50;;;;;;;16.90;100.00;98803.72;1811694;78;20906;-85
2022/08/07 06:23:47;;;;;;;5.10;3.50;;;;;;;16.88;100.00;98809.50;1828405;78;20875;-84
2022/08/07 06:26:13;;;;;;;7.90;4.30;;;;;;;16.74;100.00;98813.31;1825399;77;20992;-85
2022/08/07 06:28:50;;;;;;;5.37;3.60;;;;;;;16.78;100.00;98812.43;1825071;78;21130;-83
2022/08/07 06:31:17;;;;;;;8.90;4.50;;;;;;;16.84;100.00;98815.90;1825844;78;21007;-86
2022/08/07 06:33:43;;;;;;;6.50;3.52;;;;;;;16.88;100.00;98805.40;1824783;78;20955;-84
2022/08/07 06:36:09;;;;;;;5.50;3.30;;;;;;;16.90;100.00;98810.56;1797054;79;21176;-86
2022/08/07 06:38:35;;;;;;;4.20;3.27;;;;;;;16.86;100.00;98807.63;1811766;78;21475;-86
2022/08/07 06:41:01;;;;;;;5.92;3.55;;;;;;;16.84;100.00;98813.16;1825739;78;22372;-84
2022/08/07 06:43:27;;;;;;;7.85;4.08;;;;;;;16.83;100.00;98811.52;1830214;78;20924;-86
2022/08/07 06:45:53;;;;;;;5.72;3.35;;;;;;;16.73;100.00;98813.88;1805020;78;20942;-84
2022/08/07 06:48:19;;;;;;;6.87;3.50;;;;;;;16.61;100.00;98814.89;1834656;78;20837;-85
2022/08/07 06:50:44;;;;;;;5.37;3.85;;;;;;;16.56;100.00;98809.49;1834618;77;20895;-86
2022/08/07 06:53:11;;;;;;;7.90;3.80;;;;;;;16.55;100.00;98806.50;1806896;78;21002;-86
2022/08/07 06:55:37;;;;;;;5.28;3.95;;;;;;;16.56;100.00;98809.49;1787485;78;21013;-86
2022/08/07 06:58:05;;;;;;;9.38;3.65;;;;;;;16.54;100.00;98809.80;1827226;78;21557;-84
2022/08/07 07:00:36;;;;;;;5.65;3.72;;;;;;;16.56;100.00;98811.67;1828394;77;20951;-85
2022/08/07 07:03:02;;;;;;;5.35;3.37;;;;;;;16.59;100.00;98811.09;1822654;78;21049;-83
2022/08/07 07:05:28;;;;;;;5.55;3.85;;;;;;;16.70;100.00;98812.31;1833642;78;21581;-86
2022/08/07 07:07:54;;;;;;;7.40;4.15;;;;;;;16.80;100.00;98810.76;1833562;78;21636;-86
2022/08/07 07:10:33;;;;;;;5.60;4.15;;;;;;;16.87;100.00;98816.66;1833901;78;20961;-86
2022/08/07 07:13:05;;;;;;;5.80;4.28;;;;;;;16.91;100.00;98816.30;1834232;78;20987;-83
2022/08/07 07:15:33;;;;;;;7.47;4.10;;;;;;;16.83;100.00;98814.25;1761329;81;21527;-84
2022/08/07 07:18:16;;;;;;;6.43;4.63;;;;;;;16.90;100.00;98819.59;1768157;81;21061;-84
2022/08/07 07:20:53;;;;;;;9.63;5.10;;;;;;;16.93;100.00;98820.94;1769395;80;21077;-86
2022/08/07 07:23:19;;;;;;;7.22;4.53;;;;;;;16.85;100.00;98819.70;1771875;80;21113;-84
2022/08/07 07:25:46;;;;;;;5.60;5.00;;;;;;;16.93;100.00;98818.75;1829457;78;21066;-86
2022/08/07 07:28:17;;;;;;;7.17;5.60;;;;;;;16.86;100.00;98821.88;1829396;77;21061;-86
2022/08/07 07:30:49;;;;;;;8.60;5.90;;;;;;;16.85;100.00;98819.70;1823184;78;21270;-84
2022/08/07 07:33:16;;;;;;;6.37;4.83;;;;;;;16.86;99.91;98821.31;1753599;81;21002;-84
2022/08/07 07:35:46;;;;;;;7.90;4.67;;;;;;;16.91;99.19;98820.40;1768918;80;21156;-84
2022/08/07 07:38:12;;;;;;;8.08;5.00;;;;;;;16.88;98.42;98822.38;1762582;81;21017;-86
2022/08/07 07:40:38;;;;;;;5.60;4.83;;;;;;;16.87;99.09;98820.20;1805162;78;20880;-85
2022/08/07 07:43:04;;;;;;;6.45;5.30;;;;;;;16.94;99.39;98818.45;1802628;78;21110;-86
2022/08/07 07:45:30;;;;;;;7.40;5.33;;;;;;;16.99;99.41;98819.70;1826682;78;21597;-84
2022/08/07 07:47:56;;;;;;;6.20;4.50;;;;;;;16.98;97.33;98824.92;1822408;78;21005;-83
2022/08/07 07:50:23;;;;;;;6.97;5.15;;;;;;;17.13;97.97;98824.65;1830080;78;21109;-83
2022/08/07 07:52:49;;;;;;;7.25;4.78;;;;;;;17.31;98.75;98827.04;1830101;78;20999;-86
2022/08/07 07:55:17;;;;;;;6.17;4.33;;;;;;;17.42;97.65;98822.97;1833276;78;20979;-86
2022/08/07 07:57:43;;;;;;;4.72;3.92;;;;;;;17.55;96.55;98822.72;1829618;78;21046;-85
2022/08/07 08:00:10;;;;;;;5.78;3.27;;;;;;;17.37;93.70;98829.94;1830006;78;20950;-86
2022/08/07 08:02:36;;;;;;;3.92;3.27;;;;;;;17.58;92.45;98826.77;1752982;81;21125;-84
2022/08/07 08:05:03;;;;;;;5.65;3.52;;;;;;;17.69;92.58;98830.38;1758633;81;20868;-85
2022/08/07 08:07:31;;;;;;;6.15;3.25;;;;;;;17.76;91.66;98832.16;1763286;80;21700;-83
2022/08/07 08:09:57;;;;;;;5.45;2.95;;;;;;;17.71;90.24;98835.02;1765058;80;21086;-86
2022/08/07 08:12:23;;;;;;;3.47;2.60;;;;;;;17.84;90.88;98827.87;1761079;81;21423;-83
2022/08/07 08:14:49;;;;;;;10.40;3.50;;;;;;;17.78;90.26;98833.24;1754723;80;21001;-84
2022/08/07 08:17:15;;;;;;;5.25;2.70;;;;;;;17.77;90.04;98827.48;1773994;80;21029;-83
2022/08/07 08:19:41;;;;;;;5.30;3.02;;;;;;;17.80;88.29;98828.25;1739240;80;21228;-83
2022/08/07 08:27:39;;;;;;;13.93;3.70;;;;;;;17.90;90.34;98828.03;1752431;81;21113;-86
2022/08/07 08:30:08;;;;;;;3.08;2.77;;;;;;;18.09;90.58;98825.69;1830767;78;21077;-83
2022/08/07 08:32:41;;;;;;;5.92;2.98;;;;;;;18.06;89.28;98825.76;1762004;81;21151;-85
2022/08/07 08:35:11;;;;;;;5.47;2.45;;;;;;;18.23;89.50;98830.02;1730216;82;22143;-86
2022/08/07 08:37:37;;;;;;;4.17;2.70;;;;;;;18.32;89.61;98829.53;1774700;80;21100;-86
2022/08/07 08:40:08;;;;;;;4.78;2.62;;;;;;;18.39;87.71;98829.10;1765860;80;21027;-85
2022/08/07 08:42:53;;;;;;;3.55;2.75;;;;;;;18.15;85.27;98834.06;1763513;80;21058;-85
2022/08/07 08:45:40;;;;;;;3.58;2.15;;;;;;;18.18;83.57;98828.75;1759750;80;21869;-86
2022/08/07 08:48:22;;;;;;;5.90;2.37;;;;;;;18.27;82.39;98826.08;1760936;80;21447;-86
2022/08/07 08:50:56;;;;;;;4.80;2.10;;;;;;;18.47;83.96;98831.66;1753663;81;21587;-86
2022/08/07 08:53:45;;;;;;;3.00;2.15;;;;;;;18.63;84.63;98830.17;1796426;78;21047;-86
2022/08/07 08:56:25;;;;;;;3.22;2.55;;;;;;;18.53;83.61;98835.32;1824468;78;21081;-83
2022/08/07 08:59:11;;;;;;;3.85;2.47;;;;;;;18.50;82.54;98837.33;1824242;78;21174;-83
2022/08/07 09:01:55;;;;;;;3.30;2.27;;;;;;;18.46;81.25;98834.97;1822374;77;21014;-83
2022/08/07 09:04:49;;;;;;;4.30;2.60;;;;;;;18.40;80.82;98843.06;1823083;78;21003;-86
2022/08/07 09:07:32;;;;;;;4.33;2.52;;;;;;;18.76;81.82;98832.61;1830705;78;21019;-86
2022/08/07 09:10:12;;;;;;;7.05;2.17;;;;;;;19.12;82.09;98836.03;1827396;77;21610;-86
2022/08/07 09:12:55;;;;;;;6.10;2.25;;;;;;;19.44;80.82;98839.00;1824850;78;21249;-83
2022/08/07 09:15:59;;;;;;;3.47;2.45;;;;;;;19.56;77.83;98830.70;1820340;78;21375;-84
2022/08/07 09:19:13;;;;;;;4.03;2.40;;;;;;;20.36;78.67;98834.90;1800245;78;20996;-83
2022/08/07 09:22:14;;;;;;;7.03;2.25;;;;;;;20.53;72.34;98830.79;1825215;77;21145;-83
2022/08/07 09:25:06;;;;;;;4.12;1.98;;;;;;;21.05;72.52;98830.68;1800987;78;21046;-83
2022/08/07 09:27:46;;;;;;;3.33;1.85;;;;;;;21.37;71.55;98824.36;1824445;78;22036;-86
2022/08/07 09:30:12;;;;;;;5.05;2.00;;;;;;;21.08;69.91;98820.37;1825314;77;21054;-83
2022/08/07 09:32:47;;;;;;;7.50;1.87;;;;;;;21.37;68.96;98818.27;1825211;78;20872;-84
2022/08/07 09:35:37;;;;;;;6.97;1.80;;;;;;;21.02;66.35;98818.95;1824391;78;21016;-86
2022/08/07 09:38:20;;;;;;;2.15;1.87;;;;;;;21.37;66.17;98819.66;1824607;77;20983;-86
2022/08/07 09:41:12;;;;;;;3.20;1.82;;;;;;;21.65;67.70;98813.66;1824917;77;21835;-86
2022/08/07 09:43:47;;;;;;;4.10;1.82;;;;;;;21.44;65.14;98816.92;1828454;78;21109;-86
2022/08/07 09:46:37;;;;;;;2.58;1.52;;;;;;;21.65;65.52;98817.23;1829613;78;22083;-83
2022/08/07 09:49:58;;;;;;;3.55;1.80;;;;;;;21.88;64.01;98813.61;1765007;78;21007;-84
2022/08/07 09:52:34;;;;;;;2.45;1.60;;;;;;;21.91;67.43;98811.55;1803984;78;21033;-84
2022/08/07 09:55:17;;;;;;;4.50;1.80;;;;;;;22.21;64.57;98812.88;1797046;78;22005;-83
2022/08/07 09:58:25;;;;;;;3.22;1.52;;;;;;;21.87;62.88;98812.53;1829119;78;20983;-83
2022/08/07 10:01:04;;;;;;;;;;;;;;;22.08;62.97;98805.13;1831985;77;21506;-84
2022/08/07 10:04:15;;;;;;;3.37;1.82;;;;;;;21.98;65.50;98801.36;1831844;78;20170;-86
2022/08/07 10:07:14;;;;;;;4.90;1.70;;;;;;;21.82;64.58;98801.14;1835535;77;21154;-86
2022/08/07 10:09:54;;;;;;;4.92;2.30;;;;;;;22.04;66.03;98795.86;1810722;78;21151;-86
2022/08/07 10:12:47;;;;;;;5.00;1.60;;;;;;;21.94;64.49;98801.20;1829760;78;21026;-83
2022/08/07 10:15:58;;;;;;;5.08;1.60;;;;;;;21.40;64.31;98796.92;1832357;77;21459;-86
2022/08/07 10:18:56;;;;;;;2.65;1.60;;;;;;;21.44;65.56;98790.16;1714457;82;21062;-83
2022/08/07 10:21:27;;;;;;;5.95;2.02;;;;;;;21.33;65.93;98784.23;1700125;83;20994;-84
2022/08/07 10:24:30;;;;;;;3.83;1.85;;;;;;;21.28;66.63;98788.56;1771734;78;21021;-85
2022/08/07 10:27:37;;;;;;;3.22;1.82;;;;;;;21.28;66.82;98792.70;1824700;78;21491;-84
2022/08/07 10:30:12;;;;;;;2.90;1.70;;;;;;;21.25;66.18;98778.73;1815229;78;21069;-83
2022/08/07 10:33:26;;;;;;;3.12;1.67;;;;;;;21.16;65.80;98792.55;1831205;78;21082;-86
2022/08/07 10:36:06;;;;;;;4.37;1.98;;;;;;;20.72;65.06;98786.38;1819373;78;21104;-86
2022/08/07 10:38:44;;;;;;;3.15;1.47;;;;;;;20.49;66.81;98792.64;1824159;78;21151;-86
2022/08/07 10:41:36;;;;;;;2.40;1.62;;;;;;;20.08;64.96;98774.43;1833707;78;21486;-83
2022/08/07 10:44:21;;;;;;;3.60;1.60;;;;;;;20.36;66.42;98780.42;1751121;80;21036;-84
2022/08/07 10:46:53;;;;;;;7.83;2.77;;;;;;;20.21;66.34;98782.53;1805287;78;21010;-86
2022/08/07 10:49:48;;;;;;;3.98;1.75;;;;;;;20.26;67.84;98778.25;1818279;78;21367;-84
2022/08/07 10:52:46;;;;;;;6.10;2.10;;;;;;;20.40;68.55;98775.88;1815229;78;21101;-82
2022/08/07 10:55:23;;;;;;;6.92;2.20;;;;;;;20.22;66.19;98773.70;1780374;79;20983;-86
2022/08/07 10:58:18;;;;;;;7.62;1.92;;;;;;;20.16;66.08;98766.74;1773862;79;21038;-83
2022/08/07 11:01:04;;;;;;;2.85;2.00;;;;;;;20.19;66.09;98771.05;1807052;78;21014;-83
2022/08/07 11:03:41;;;;;;;4.87;1.62;;;;;;;20.18;64.71;98770.81;1678955;84;21094;-83
2022/08/07 11:06:20;;;;;;;4.60;1.85;;;;;;;20.47;65.10;98765.22;1792226;78;21436;-83
2022/08/07 11:08:54;;;;;;;3.08;1.72;;;;;;;20.13;64.23;98763.27;1810218;78;21126;-83
2022/08/07 11:11:40;;;;;;;2.40;1.65;;;;;;;20.30;65.36;98756.38;1823496;78;21121;-83
2022/08/07 11:14:16;;;;;;;2.65;1.60;;;;;;;20.31;65.43;98762.12;1824527;78;21125;-85
2022/08/07 11:17:15;;;;;;;3.00;1.70;;;;;;;20.36;65.24;98758.41;1829831;78;21460;-83
2022/08/07 11:20:00;;;;;;;3.22;1.77;;;;;;;20.51;64.77;98757.36;1826445;78;21116;-86
2022/08/07 11:23:20;;;;;;;2.90;1.70;;;;;;;20.72;64.42;98751.15;1831101;78;21034;-86
2022/08/07 11:25:57;;;;;;;5.40;1.50;;;;;;;20.78;63.73;98752.02;1827851;78;20962;-86
2022/08/07 11:28:50;;;;;;;3.20;1.37;;;;;;;20.88;64.02;98743.97;1824545;78;21080;-86
2022/08/07 11:31:27;;;;;;;3.60;1.52;;;;;;;21.08;64.80;98739.09;1802867;78;21471;-86
2022/08/07 11:34:00;;;;;;;2.22;1.67;;;;;;;21.61;63.27;98742.38;1825356;78;21538;-83
2022/08/07 11:37:07;;;;;;;7.37;1.72;;;;;;;21.69;60.36;98736.00;1824502;78;22135;-86
2022/08/07 11:40:17;;;;;;;5.35;1.60;;;;;;;21.79;61.83;98724.59;1826011;78;21031;-83
2022/08/07 11:43:09;;;;;;;3.83;1.80;;;;;;;22.30;60.72;98728.62;1825006;78;21054;-86
2022/08/07 11:46:03;;;;;;;3.60;1.62;;;;;;;22.60;60.06;98723.77;1808579;78;21008;-84
2022/08/07 11:48:51;;;;;;;2.33;1.62;;;;;;;22.79;59.84;98726.22;1823844;77;21487;-83
2022/08/07 11:51:47;;;;;;;1.98;1.42;;;;;;;22.59;57.18;98722.16;1826944;78;21019;-86
2022/08/07 11:54:37;;;;;;;2.30;1.40;;;;;;;23.89;55.50;98714.32;1825315;78;21082;-83